Terminal Aerodrome Forecast
Issued by NWS

Home | Current Version | Previous Version | Text Only | Print | Product List | Glossary On
Versions: 1 2 3 4 5 6 7 8 9 10 11 12 13 14 15
000
FTUS43 KUNR 300500
TAFGCC
TAF
KGCC 300520Z 3006/3106 22006KT P6SM SCT250
     FM301000 25008KT P6SM BKN250
     FM301400 32011KT P6SM SCT250
     FM301700 33015G25KT P6SM BKN250
     FM302100 34011KT P6SM BKN250
     FM310200 01004KT P6SM SKC=

USA.gov is the U.S. government's official web portal to all federal, state and local government web resources and services.